EKOD Airport Information

Runway Information
Runway 06 Length 6053 ft width 148 ft
Elevation 44 ft Threshold 0 ft Heading 60
Runway 24 Length 6053 ft Width 148 ft
Elevation 46 ft Threshold 0 ft Heading 240
Runway 13 Length 2280 ft width 98 ft
Elevation 0 ft Threshold 0 ft Heading 130
Runway 31 Length 2280 ft Width 98 ft
Elevation 0 ft Threshold 361 ft Heading 310
Airport Frequencies
Type AFIS Name AFIS Frequency 119.525 MHZ
Airport Navaids
Airport Weather Information & NOTAM
ADDS - METARS form results

(1233 UTC 21 September 2018)
Data provider http://aviationweather.gov/metar/data/
 
METAR text: EKOD 211220Z 23023G35KT 9999 FEW016 SCT033 BKN220 14/09 Q0997
Conditions at: EKOD (ODENSE/BELDRINGE, DK) observed 1220 UTC 21 September 2018
Temperature: 14.0°C (57°F)
Dewpoint: 9.0°C (48°F) [RH = 72%]
Pressure (altimeter): 29.44 inches Hg (997.0 mb)
Winds: from the SW (230 degrees) at 26 MPH (23 knots; 11.8 m/s)
gusting to 40 MPH (35 knots; 18.0 m/s)
Visibility: 6 or more miles (10+ km)
Ceiling: 22000 feet AGL
Clouds: few clouds at 1600 feet AGL
scattered clouds at 3300 feet AGL
broken clouds at 22000 feet AGL
Weather: no significant weather observed at this time

METAR text: EKOD 211150Z 23023G41KT 190V250 9999 SCT016 BKN021 BKN060 15/11 Q0997
Conditions at: EKOD (ODENSE/BELDRINGE, DK) observed 1150 UTC 21 September 2018
Temperature: 15.0°C (59°F)
Dewpoint: 11.0°C (52°F) [RH = 77%]
Pressure (altimeter): 29.44 inches Hg (997.0 mb)
Winds: from the SW (230 degrees) at 26 MPH (23 knots; 11.8 m/s)
gusting to 47 MPH (41 knots; 21.1 m/s)
Visibility: 6 or more miles (10+ km)
Ceiling: 2100 feet AGL
Clouds: scattered clouds at 1600 feet AGL
broken clouds at 2100 feet AGL
broken clouds at 6000 feet AGL
Weather: no significant weather observed at this time

Forecast for: EKOD (ODENSE/BELDRINGE, DK)
Text: TAF EKOD 211159Z 2112/2118 24022G38KT 9999 BKN030
Forecast period: 1200 to 1800 UTC 21 September 2018
Forecast type: FROM: standard forecast or significant change
Winds: from the WSW (240 degrees) at 25 MPH (22 knots; 11.3 m/s)
gusting to 44 MPH (38 knots; 19.5 m/s)
Visibility: 6 or more miles 10+ km)
Ceiling: 3000 feet AGL
Clouds: broken clouds at 3000 feet AGL
Weather: no significant weather forecast for this period
Text: TEMPO 2113/2118 25015G28KT 4000 SHRAGS BKN012CB
Forecast period: 1300 to 1800 UTC 21 September 2018
Forecast type: TEMPORARY: The following changes expected for less than half the time period
Winds: from the WSW (250 degrees) at 17 MPH (15 knots; 7.7 m/s)
gusting to 32 MPH (28 knots; 14.4 m/s)
Visibility: 2.49 miles (4.01 km)
Ceiling: 1200 feet AGL
Clouds: broken clouds at 1200 feet AGL
Weather: SHRA SHGS  (rain showers, small hail or graupel showers)